createdAt,value
2018-10-19T00:01:32.285Z,26.23
2018-10-19T00:04:01.460Z,27.87
2018-10-19T00:06:30.548Z,31.37
2018-10-19T00:08:59.694Z,27.97
2018-10-19T00:11:28.799Z,31.50
2018-10-19T00:13:58.086Z,34.10
2018-10-19T00:16:27.437Z,33.83
2018-10-19T00:18:57.277Z,32.67
2018-10-19T00:21:27.462Z,30.03
2018-10-19T00:23:56.936Z,35.10
2018-10-19T00:26:26.123Z,30.27
2018-10-19T00:28:55.459Z,34.23
2018-10-19T00:31:24.673Z,32.43
2018-10-19T00:33:53.874Z,31.80
2018-10-19T00:36:24.117Z,32.63
2018-10-19T00:38:53.299Z,32.07
2018-10-19T00:41:22.373Z,34.37
2018-10-19T00:43:51.555Z,37.00
2018-10-19T00:46:20.903Z,29.77
2018-10-19T00:48:50.108Z,27.97
2018-10-19T00:51:19.201Z,29.73
2018-10-19T00:53:48.224Z,26.07
2018-10-19T00:56:17.437Z,25.80
2018-10-19T00:58:46.484Z,28.87
2018-10-19T01:01:15.501Z,25.83
2018-10-19T01:03:44.700Z,23.87
2018-10-19T01:06:13.827Z,23.07
2018-10-19T01:08:42.850Z,26.93
2018-10-19T01:11:12.913Z,23.90
2018-10-19T01:13:41.936Z,23.27
2018-10-19T01:16:11.024Z,25.63
2018-10-19T01:18:40.264Z,24.37
2018-10-19T01:21:09.434Z,28.27
2018-10-19T01:23:38.710Z,32.43
2018-10-19T01:26:07.794Z,28.63
2018-10-19T01:28:36.812Z,27.27
2018-10-19T01:31:06.145Z,26.87
2018-10-19T01:33:35.238Z,25.77
2018-10-19T01:36:04.464Z,26.73
2018-10-19T01:38:33.445Z,23.90
2018-10-19T01:41:02.605Z,24.60
2018-10-19T01:43:31.664Z,26.47
2018-10-19T01:46:00.758Z,30.47
2018-10-19T01:48:29.834Z,26.80
2018-10-19T01:50:59.465Z,25.47
2018-10-19T01:53:29.394Z,24.20
2018-10-19T01:55:58.418Z,25.30
2018-10-19T01:58:27.738Z,24.27
2018-10-19T02:00:56.804Z,24.77
2018-10-19T02:03:25.881Z,24.97
2018-10-19T02:05:54.933Z,25.80
2018-10-19T02:08:23.974Z,29.73
2018-10-19T02:10:53.137Z,29.27
2018-10-19T02:13:22.737Z,27.33
2018-10-19T02:15:51.814Z,29.70
2018-10-19T02:18:20.848Z,29.27
2018-10-19T02:20:49.890Z,33.57
2018-10-19T02:23:19.083Z,32.37
2018-10-19T02:25:47.999Z,36.20
2018-10-19T02:28:17.094Z,31.90
2018-10-19T02:30:46.178Z,37.03
2018-10-19T02:33:15.255Z,53.87
2018-10-19T02:35:45.493Z,40.13
2018-10-19T02:38:15.314Z,37.50
2018-10-19T02:40:45.190Z,38.97
2018-10-19T02:43:14.245Z,34.03
2018-10-19T02:45:43.563Z,37.37
2018-10-19T02:48:12.931Z,31.97
2018-10-19T02:50:41.984Z,30.33
2018-10-19T02:53:11.301Z,26.87
2018-10-19T02:55:41.575Z,33.57
2018-10-19T02:58:11.779Z,30.83
2018-10-19T03:00:41.326Z,35.37
2018-10-19T03:03:10.508Z,32.90
2018-10-19T03:05:40.788Z,38.27
2018-10-19T03:08:10.071Z,34.87
2018-10-19T03:10:39.110Z,37.40
2018-10-19T03:13:08.166Z,34.53
2018-10-19T03:15:38.628Z,31.80
2018-10-19T03:18:07.901Z,33.13
2018-10-19T03:20:36.974Z,34.73
2018-10-19T03:23:08.259Z,34.77
2018-10-19T03:25:37.404Z,33.60
2018-10-19T03:28:06.554Z,34.07
2018-10-19T03:30:36.697Z,34.97
2018-10-19T03:33:06.718Z,35.63
2018-10-19T03:35:36.967Z,33.47
2018-10-19T03:38:06.658Z,34.53
2018-10-19T03:40:35.859Z,32.53
2018-10-19T03:43:05.430Z,32.83
2018-10-19T03:45:35.405Z,29.00
2018-10-19T03:48:05.425Z,22.70
2018-10-19T03:50:34.559Z,23.53
2018-10-19T03:53:05.080Z,23.23
2018-10-19T03:55:36.237Z,22.47
2018-10-19T03:58:06.298Z,21.97
2018-10-19T04:00:35.927Z,22.40
2018-10-19T04:03:07.049Z,22.57
2018-10-19T04:05:36.043Z,23.23
2018-10-19T04:08:05.220Z,22.23
2018-10-19T04:10:34.305Z,21.63
2018-10-19T04:13:05.136Z,21.17
2018-10-19T04:15:35.020Z,21.87
2018-10-19T04:18:04.175Z,22.40
2018-10-19T04:20:33.635Z,21.00
2018-10-19T04:23:06.644Z,19.80
2018-10-19T04:25:36.575Z,19.83
2018-10-19T04:28:06.872Z,20.50
2018-10-19T04:30:37.571Z,21.37
2018-10-19T04:33:07.533Z,24.73
2018-10-19T04:35:36.632Z,24.90
2018-10-19T04:38:06.028Z,24.53
2018-10-19T04:40:36.693Z,23.17
2018-10-19T04:43:06.413Z,21.27
2018-10-19T04:45:36.733Z,20.17
2018-10-19T04:48:06.886Z,23.77
2018-10-19T04:50:38.325Z,24.73
2018-10-19T04:53:08.247Z,24.63
2018-10-19T04:55:37.577Z,24.20
2018-10-19T04:58:07.423Z,22.93
2018-10-19T05:00:36.784Z,23.27
2018-10-19T05:03:06.723Z,25.10
2018-10-19T05:05:37.422Z,25.90
2018-10-19T05:08:07.216Z,27.63
2018-10-19T05:10:36.502Z,24.83
2018-10-19T05:13:06.175Z,23.07
2018-10-19T05:15:35.693Z,30.70
2018-10-19T05:18:05.288Z,29.33
2018-10-19T05:20:34.563Z,31.67
2018-10-19T05:23:03.876Z,30.90
2018-10-19T05:25:33.109Z,32.17
2018-10-19T05:28:02.292Z,29.10
2018-10-19T05:30:31.483Z,34.53
2018-10-19T05:33:00.802Z,31.37
2018-10-19T05:35:29.848Z,31.20
2018-10-19T05:37:59.135Z,29.60
2018-10-19T05:40:28.626Z,31.17
2018-10-19T05:42:57.966Z,30.67
2018-10-19T05:45:27.129Z,31.20
2018-10-19T05:47:56.436Z,35.97
2018-10-19T05:50:25.783Z,32.57
2018-10-19T05:52:54.920Z,31.63
2018-10-19T05:55:23.990Z,35.00
2018-10-19T05:57:53.272Z,39.50
2018-10-19T06:00:22.761Z,35.07
2018-10-19T06:02:51.853Z,34.70
2018-10-19T06:05:21.076Z,34.63
2018-10-19T06:07:50.169Z,33.43
2018-10-19T06:10:19.395Z,33.90
2018-10-19T06:12:48.715Z,34.50
2018-10-19T06:15:19.021Z,33.17
2018-10-19T06:17:48.326Z,32.73
2018-10-19T06:20:17.707Z,31.40
2018-10-19T06:22:47.035Z,34.80
2018-10-19T06:25:16.229Z,33.63
2018-10-19T06:27:45.608Z,36.53
2018-10-19T06:30:15.008Z,37.50
2018-10-19T06:32:44.177Z,37.97
2018-10-19T06:35:13.367Z,37.93
2018-10-19T06:37:42.563Z,41.50
2018-10-19T06:40:11.956Z,35.93
2018-10-19T06:42:41.419Z,34.77
2018-10-19T06:45:10.816Z,36.27
2018-10-19T06:47:39.847Z,34.30
2018-10-19T06:50:11.095Z,34.27
2018-10-19T06:52:41.035Z,33.83
2018-10-19T06:55:12.524Z,35.83
2018-10-19T06:57:41.796Z,43.87
2018-10-19T07:00:11.095Z,35.03
2018-10-19T07:02:40.372Z,42.43
2018-10-19T07:05:09.743Z,37.70
2018-10-19T07:07:39.167Z,39.83
2018-10-19T07:10:09.571Z,38.77
2018-10-19T07:12:39.357Z,37.73
2018-10-19T07:15:09.832Z,36.87
2018-10-19T07:17:39.383Z,34.97
2018-10-19T07:20:10.347Z,35.77
2018-10-19T07:22:40.089Z,36.83
2018-10-19T07:25:09.668Z,35.47
2018-10-19T07:27:39.355Z,34.90
2018-10-19T07:30:08.837Z,37.93
2018-10-19T07:32:38.258Z,36.93
2018-10-19T07:35:08.300Z,36.67
2018-10-19T07:37:38.065Z,34.83
2018-10-19T07:40:07.609Z,30.73
2018-10-19T07:42:36.871Z,28.27
2018-10-19T07:45:07.113Z,29.03
2018-10-19T07:47:36.408Z,28.80
2018-10-19T07:50:06.490Z,29.97
2018-10-19T07:52:35.641Z,34.57
2018-10-19T07:55:04.825Z,35.00
2018-10-19T07:57:33.936Z,29.27
2018-10-19T08:00:03.035Z,33.73
2018-10-19T08:02:32.386Z,31.60
2018-10-19T08:05:01.578Z,29.83
2018-10-19T08:07:30.812Z,29.60
2018-10-19T08:10:00.353Z,25.53
2018-10-19T08:12:29.738Z,27.27
2018-10-19T08:14:59.015Z,23.30
2018-10-19T08:17:28.439Z,24.23
2018-10-19T08:19:57.868Z,24.63
2018-10-19T08:22:27.271Z,21.30
2018-10-19T08:24:56.545Z,21.43
2018-10-19T08:27:26.038Z,21.40
2018-10-19T08:29:55.277Z,20.50
2018-10-19T08:32:24.579Z,21.43
2018-10-19T08:34:53.779Z,24.03
2018-10-19T08:37:23.221Z,21.13
2018-10-19T08:39:53.127Z,23.50
2018-10-19T08:42:22.480Z,27.57
2018-10-19T08:44:51.723Z,25.63
2018-10-19T08:47:21.049Z,22.43
2018-10-19T08:49:51.208Z,21.97
2018-10-19T08:52:20.505Z,20.23
2018-10-19T08:54:49.885Z,18.93
2018-10-19T08:57:19.217Z,17.60
2018-10-19T08:59:48.572Z,20.43
2018-10-19T09:02:18.095Z,22.40
2018-10-19T09:04:47.905Z,23.57
2018-10-19T09:07:17.263Z,23.00
2018-10-19T09:09:46.539Z,22.63
2018-10-19T09:12:15.856Z,23.20
2018-10-19T09:14:53.172Z,20.53
2018-10-19T09:17:22.822Z,19.53
2018-10-19T09:19:52.393Z,21.17
2018-10-19T09:22:22.181Z,20.73
2018-10-19T09:24:51.961Z,21.03
2018-10-19T09:27:21.575Z,21.40
2018-10-19T09:29:50.969Z,20.50
2018-10-19T09:32:20.204Z,18.50
2018-10-19T09:34:49.571Z,19.20
2018-10-19T09:37:18.878Z,19.80
2018-10-19T09:39:48.173Z,18.83
2018-10-19T09:42:17.515Z,19.20
2018-10-19T09:44:46.971Z,18.07
2018-10-19T09:47:16.311Z,16.53
2018-10-19T09:49:45.546Z,20.17
2018-10-19T09:52:14.896Z,20.30
2018-10-19T09:54:44.068Z,22.90
2018-10-19T09:57:13.617Z,22.43
2018-10-19T09:59:42.703Z,20.73
2018-10-19T10:02:12.068Z,21.47
2018-10-19T10:04:41.208Z,21.73
2018-10-19T10:07:10.882Z,20.67
2018-10-19T10:09:40.011Z,22.20
2018-10-19T10:12:09.472Z,20.80
2018-10-19T10:14:38.800Z,22.57
2018-10-19T10:17:08.225Z,24.73
2018-10-19T10:19:37.545Z,25.30
2018-10-19T10:22:07.143Z,24.87
2018-10-19T10:24:36.256Z,24.03
2018-10-19T10:27:05.910Z,23.10
2018-10-19T10:29:35.530Z,24.63
2018-10-19T10:32:04.696Z,24.43
2018-10-19T10:34:33.980Z,26.53
2018-10-19T10:37:03.698Z,23.37
2018-10-19T10:39:33.137Z,24.43
2018-10-19T10:42:02.724Z,25.43
2018-10-19T10:44:32.174Z,24.97
2018-10-19T10:47:01.664Z,25.03
2018-10-19T10:49:30.953Z,25.00
2018-10-19T10:52:00.191Z,23.50
2018-10-19T10:54:30.357Z,23.60
2018-10-19T10:56:59.919Z,21.73
2018-10-19T10:59:29.366Z,24.67
2018-10-19T11:01:58.761Z,24.10
2018-10-19T11:04:28.045Z,24.37
2018-10-19T11:06:57.469Z,25.40
2018-10-19T11:09:26.961Z,26.75
2018-10-19T11:11:56.368Z,23.12
2018-10-19T11:14:25.684Z,24.53
2018-10-19T11:16:55.136Z,25.60
2018-10-19T11:19:24.498Z,23.52
2018-10-19T11:21:54.051Z,25.00
2018-10-19T11:24:23.567Z,25.17
2018-10-19T11:26:53.277Z,25.68
2018-10-19T11:29:22.615Z,24.43
2018-10-19T11:31:51.956Z,24.35
2018-10-19T11:34:21.558Z,24.70
2018-10-19T11:36:50.902Z,24.85
2018-10-19T11:39:21.020Z,24.37
2018-10-19T11:41:50.327Z,23.83
2018-10-19T11:44:19.802Z,23.12
2018-10-19T11:46:49.177Z,24.20
2018-10-19T11:49:18.609Z,24.85
2018-10-19T11:51:47.705Z,27.98
2018-10-19T11:54:17.048Z,24.95
2018-10-19T11:56:46.452Z,23.45
2018-10-19T11:59:15.766Z,25.05
2018-10-19T12:01:45.287Z,23.18
2018-10-19T12:04:14.992Z,25.68
2018-10-19T12:06:44.353Z,26.55
2018-10-19T12:09:14.471Z,26.67
2018-10-19T12:11:43.786Z,25.27
2018-10-19T12:14:13.277Z,22.47
2018-10-19T12:16:42.718Z,22.90
2018-10-19T12:19:12.148Z,24.27
2018-10-19T12:21:41.356Z,26.20
2018-10-19T12:24:11.023Z,23.13
2018-10-19T12:26:40.392Z,24.23
2018-10-19T12:29:09.764Z,24.95
2018-10-19T12:31:39.161Z,25.23
2018-10-19T12:34:08.537Z,20.95
2018-10-19T12:36:37.865Z,23.42
2018-10-19T12:39:08.939Z,25.43
2018-10-19T12:41:38.262Z,25.02
2018-10-19T12:44:08.706Z,23.32
2018-10-19T12:46:50.040Z,22.45
2018-10-19T12:49:20.643Z,21.85
2018-10-19T12:51:50.633Z,22.75
2018-10-19T12:54:20.260Z,23.32
2018-10-19T12:56:49.688Z,22.98
2018-10-19T12:59:19.441Z,25.27
2018-10-19T13:01:48.872Z,23.42
2018-10-19T13:04:18.049Z,23.35
2018-10-19T13:06:47.520Z,25.85
2018-10-19T13:09:16.802Z,24.47
2018-10-19T13:11:46.118Z,21.35
2018-10-19T13:14:15.480Z,21.80
2018-10-19T13:16:44.834Z,22.52
2018-10-19T13:19:14.253Z,23.30
2018-10-19T13:21:43.869Z,23.57
2018-10-19T13:24:13.244Z,23.87
2018-10-19T13:26:42.574Z,22.95
2018-10-19T13:29:12.031Z,22.45
2018-10-19T13:31:41.638Z,24.07
2018-10-19T13:34:11.111Z,21.97
2018-10-19T13:36:40.554Z,22.82
2018-10-19T13:39:11.445Z,23.12
2018-10-19T13:41:41.192Z,21.05
2018-10-19T13:44:10.741Z,22.85
2018-10-19T13:46:40.232Z,24.32
2018-10-19T13:49:09.645Z,21.70
2018-10-19T13:51:39.172Z,24.65
2018-10-19T13:54:08.648Z,22.85
2018-10-19T13:56:37.971Z,23.22
2018-10-19T13:59:07.330Z,22.27
2018-10-19T14:01:36.942Z,25.25
2018-10-19T14:04:06.515Z,23.42
2018-10-19T14:06:35.793Z,23.40
2018-10-19T14:09:06.998Z,24.80
2018-10-19T14:11:36.475Z,22.33
2018-10-19T14:14:06.164Z,26.13
2018-10-19T14:16:35.417Z,25.70
2018-10-19T14:19:04.810Z,27.37
2018-10-19T14:21:34.306Z,25.13
2018-10-19T14:24:04.137Z,28.80
2018-10-19T14:26:33.552Z,24.97
2018-10-19T14:29:02.677Z,25.60
2018-10-19T14:31:32.056Z,28.33
2018-10-19T14:34:01.176Z,26.10
2018-10-19T14:36:30.540Z,27.03
2018-10-19T14:38:59.756Z,29.43
2018-10-19T14:41:29.061Z,26.90
2018-10-19T14:43:58.307Z,27.20
2018-10-19T14:46:27.579Z,29.70
2018-10-19T14:48:57.092Z,27.47
2018-10-19T14:51:26.414Z,28.73
2018-10-19T14:53:55.693Z,27.23
2018-10-19T14:56:25.016Z,26.47
2018-10-19T14:58:54.279Z,31.07
2018-10-19T15:01:23.654Z,28.27
2018-10-19T15:03:53.012Z,29.10
2018-10-19T15:06:22.226Z,28.57
2018-10-19T15:08:51.558Z,29.53
2018-10-19T15:11:21.573Z,29.47
2018-10-19T15:13:50.666Z,32.50
2018-10-19T15:16:19.848Z,29.33
2018-10-19T15:18:49.054Z,29.20
2018-10-19T15:21:18.433Z,29.53
2018-10-19T15:23:47.714Z,28.73
2018-10-19T15:26:16.856Z,29.37
2018-10-19T15:28:46.123Z,28.07
2018-10-19T15:31:15.378Z,30.63
2018-10-19T15:33:44.713Z,29.47
2018-10-19T15:36:13.956Z,29.23
2018-10-19T15:42:29.460Z,30.17
2018-10-19T15:44:58.760Z,32.03
2018-10-19T15:47:31.031Z,33.57
2018-10-19T15:50:00.363Z,33.83
2018-10-19T15:52:30.038Z,31.17
2018-10-19T15:54:59.277Z,31.60
2018-10-19T15:57:28.805Z,31.40
2018-10-19T15:59:57.935Z,31.90
2018-10-19T16:02:27.312Z,30.83
2018-10-19T16:04:56.648Z,29.13
2018-10-19T16:07:26.093Z,29.20
2018-10-19T16:09:55.222Z,33.37
2018-10-19T16:12:24.452Z,30.30
2018-10-19T16:14:53.785Z,30.60
2018-10-19T16:17:23.048Z,29.80
2018-10-19T16:19:52.326Z,31.93
2018-10-19T16:22:21.682Z,29.13
2018-10-19T16:24:51.724Z,29.30
2018-10-19T16:27:20.915Z,32.20
2018-10-19T16:29:51.013Z,30.90
2018-10-19T16:32:20.308Z,31.63
2018-10-19T16:34:49.671Z,34.77
2018-10-19T16:37:19.346Z,33.67
2018-10-19T16:39:48.585Z,33.40
2018-10-19T16:42:18.150Z,33.37
2018-10-19T16:44:47.425Z,32.03
2018-10-19T16:47:16.500Z,33.03
2018-10-19T16:49:45.845Z,32.20
2018-10-19T16:52:15.190Z,28.50
2018-10-19T16:54:44.405Z,31.23
2018-10-19T16:57:14.003Z,31.63
2018-10-19T16:59:43.074Z,31.30
2018-10-19T17:02:12.595Z,34.10
2018-10-19T17:04:41.783Z,30.83
2018-10-19T17:07:10.960Z,31.80
2018-10-19T17:09:40.149Z,28.70
2018-10-19T17:12:09.646Z,30.77
2018-10-19T17:14:38.708Z,31.27
2018-10-19T17:17:07.852Z,34.47
2018-10-19T17:19:36.910Z,29.27
2018-10-19T17:22:06.369Z,35.37
2018-10-19T17:24:35.464Z,32.87
2018-10-19T17:27:04.679Z,30.40
2018-10-19T17:29:34.635Z,32.23
2018-10-19T17:32:03.894Z,30.37
2018-10-19T17:34:33.054Z,32.57
2018-10-19T17:37:02.143Z,32.10
2018-10-19T17:39:31.310Z,33.27
2018-10-19T17:42:00.783Z,29.43
2018-10-19T17:44:29.880Z,32.90
2018-10-19T17:46:59.113Z,31.83
2018-10-19T17:49:28.225Z,34.37
2018-10-19T17:51:57.420Z,32.07
2018-10-19T17:54:26.455Z,31.83
2018-10-19T17:56:55.535Z,32.13
2018-10-19T17:59:24.666Z,35.13
2018-10-19T18:01:53.830Z,33.57
2018-10-19T18:04:22.909Z,32.63
2018-10-19T18:06:52.222Z,30.93
2018-10-19T18:09:21.682Z,31.20
2018-10-19T18:11:51.049Z,33.77
2018-10-19T18:14:20.251Z,28.43
2018-10-19T18:16:49.299Z,35.83
2018-10-19T18:19:18.413Z,31.10
2018-10-19T18:21:47.713Z,32.83
2018-10-19T18:24:16.955Z,28.23
2018-10-19T18:26:46.195Z,32.70
2018-10-19T18:29:15.449Z,30.03
2018-10-19T18:31:44.635Z,34.70
2018-10-19T18:34:14.053Z,31.60
2018-10-19T18:36:43.470Z,31.37
2018-10-19T18:39:14.257Z,30.17
2018-10-19T18:41:44.435Z,33.50
2018-10-19T18:44:13.779Z,29.90
2018-10-19T18:46:43.070Z,29.27
2018-10-19T18:49:12.153Z,29.47
2018-10-19T18:51:41.477Z,33.60
2018-10-19T18:54:10.836Z,31.67
2018-10-19T18:56:40.134Z,33.83
2018-10-19T18:59:09.397Z,32.83
2018-10-19T19:01:39.434Z,34.33
2018-10-19T19:04:08.682Z,34.97
2018-10-19T19:06:37.809Z,34.77
2018-10-19T19:09:10.162Z,34.27
2018-10-19T19:11:39.279Z,33.00
2018-10-19T19:14:08.547Z,34.60
2018-10-19T19:16:37.770Z,31.33
2018-10-19T19:19:07.165Z,32.13
2018-10-19T19:21:36.429Z,34.93
2018-10-19T19:24:10.769Z,35.00
2018-10-19T19:26:39.997Z,32.30
2018-10-19T19:29:09.365Z,33.10
2018-10-19T19:31:38.626Z,38.83
2018-10-19T19:34:12.945Z,32.00
2018-10-19T19:36:42.109Z,35.53
2018-10-19T19:39:11.494Z,37.10
2018-10-19T19:41:46.565Z,34.30
2018-10-19T19:44:15.959Z,30.97
2018-10-19T19:46:44.977Z,32.37
2018-10-19T19:49:19.354Z,33.07
2018-10-19T19:51:48.424Z,29.97
2018-10-19T19:54:17.497Z,34.10
2018-10-19T19:56:46.584Z,29.97
2018-10-19T19:59:15.714Z,33.67
2018-10-19T20:01:45.610Z,30.90
2018-10-19T20:04:14.712Z,33.43
2018-10-19T20:06:43.927Z,29.83
2018-10-19T20:09:13.014Z,31.80
2018-10-19T20:11:42.217Z,32.80
2018-10-19T20:14:11.394Z,31.27
2018-10-19T20:16:40.737Z,30.80
2018-10-19T20:19:09.995Z,29.70
2018-10-19T20:21:39.290Z,35.00
2018-10-19T20:24:09.337Z,31.57
2018-10-19T20:26:38.354Z,32.63
2018-10-19T20:29:07.499Z,31.60
2018-10-19T20:31:36.716Z,31.37
2018-10-19T20:34:06.137Z,34.43
2018-10-19T20:36:35.164Z,29.83
2018-10-19T20:39:05.171Z,32.73
2018-10-19T20:41:34.436Z,32.77
2018-10-19T20:44:03.580Z,32.50
2018-10-19T20:46:33.348Z,31.93
2018-10-19T20:49:05.434Z,30.33
2018-10-19T20:51:34.595Z,31.67
2018-10-19T20:54:03.865Z,31.37
2018-10-19T20:56:33.129Z,31.63
2018-10-19T20:59:02.758Z,32.03
2018-10-19T21:01:32.019Z,29.87
2018-10-19T21:04:01.225Z,30.60
2018-10-19T21:06:30.675Z,33.27
2018-10-19T21:08:59.861Z,33.00
2018-10-19T21:11:29.156Z,31.13
2018-10-19T21:13:58.491Z,33.33
2018-10-19T21:16:27.533Z,32.40
2018-10-19T21:18:56.789Z,34.33
2018-10-19T21:21:25.938Z,34.77
2018-10-19T21:23:55.276Z,31.23
2018-10-19T21:26:24.562Z,34.50
2018-10-19T21:28:53.812Z,31.17
2018-10-19T21:31:22.941Z,30.43
2018-10-19T21:33:52.943Z,36.10
2018-10-19T21:36:22.157Z,34.67
2018-10-19T21:38:51.275Z,33.93
2018-10-19T21:41:20.401Z,36.27
2018-10-19T21:43:49.717Z,31.90
2018-10-19T21:46:18.754Z,35.53
2018-10-19T21:48:47.760Z,36.13
2018-10-19T21:51:16.878Z,36.43
2018-10-19T21:53:46.134Z,37.63
2018-10-19T21:56:15.553Z,34.47
2018-10-19T21:58:44.896Z,34.00
2018-10-19T22:01:14.133Z,34.40
2018-10-19T22:03:43.216Z,34.33
2018-10-19T22:06:12.531Z,32.67
2018-10-19T22:08:41.849Z,31.67
2018-10-19T22:11:11.089Z,35.43
2018-10-19T22:13:40.362Z,33.80
2018-10-19T22:16:09.496Z,30.43
2018-10-19T22:18:39.372Z,34.63
2018-10-19T22:21:08.470Z,33.00
2018-10-19T22:23:37.551Z,36.57
2018-10-19T22:26:06.933Z,32.97
2018-10-19T22:28:36.192Z,31.87
2018-10-19T22:31:06.038Z,37.07
2018-10-19T22:33:35.162Z,38.53
2018-10-19T22:36:04.466Z,38.93
2018-10-19T22:38:33.492Z,36.63
2018-10-19T22:41:02.619Z,37.33
2018-10-19T22:43:31.726Z,38.20
2018-10-19T22:46:00.965Z,40.07
2018-10-19T22:48:30.056Z,36.57
2018-10-19T22:51:05.466Z,41.73
2018-10-19T22:53:34.681Z,39.07
2018-10-19T22:56:03.767Z,36.80
2018-10-19T22:58:32.840Z,39.03
2018-10-19T23:01:02.155Z,38.20
2018-10-19T23:03:31.238Z,41.97
2018-10-19T23:06:00.705Z,40.57
2018-10-19T23:08:29.880Z,41.03
2018-10-19T23:10:59.005Z,44.10
2018-10-19T23:13:28.042Z,42.10
2018-10-19T23:15:57.167Z,38.07
2018-10-19T23:18:26.242Z,40.47
2018-10-19T23:20:55.415Z,37.43
2018-10-19T23:23:24.457Z,38.40
2018-10-19T23:25:53.524Z,40.97
2018-10-19T23:28:22.658Z,39.37
2018-10-19T23:30:52.265Z,40.30
2018-10-19T23:33:21.351Z,36.43
2018-10-19T23:35:50.427Z,45.67
2018-10-19T23:38:19.470Z,46.47
2018-10-19T23:40:48.559Z,48.27
2018-10-19T23:43:17.615Z,42.30
2018-10-19T23:45:46.751Z,43.13
2018-10-19T23:48:16.037Z,41.53
2018-10-19T23:50:45.254Z,45.00
2018-10-19T23:53:14.363Z,43.77
2018-10-19T23:55:43.501Z,42.63
2018-10-19T23:58:12.648Z,42.27
